createdAt,value
2018-02-06T00:02:08.335Z,-0.60
2018-02-06T00:04:34.608Z,-0.60
2018-02-06T00:07:00.936Z,-0.60
2018-02-06T00:09:27.386Z,-0.70
2018-02-06T00:11:53.712Z,-0.70
2018-02-06T00:14:19.977Z,-0.70
2018-02-06T00:16:46.545Z,-0.70
2018-02-06T00:19:12.973Z,-0.70
2018-02-06T00:21:39.464Z,-0.70
2018-02-06T00:24:08.909Z,-0.70
2018-02-06T00:26:35.556Z,-0.80
2018-02-06T00:31:57.965Z,-0.80
2018-02-06T00:34:24.423Z,-0.70
2018-02-06T00:36:51.714Z,-0.80
2018-02-06T00:39:18.107Z,-0.80
2018-02-06T00:41:44.416Z,-0.80
2018-02-06T00:44:10.632Z,-0.80
2018-02-06T00:46:39.817Z,-0.70
2018-02-06T00:49:07.385Z,-0.80
2018-02-06T00:51:33.767Z,-0.70
2018-02-06T00:54:00.182Z,-0.80
2018-02-06T00:56:26.481Z,-0.80
2018-02-06T00:58:52.800Z,-0.80
2018-02-06T01:01:19.605Z,-0.90
2018-02-06T01:03:46.127Z,-0.80
2018-02-06T01:06:12.593Z,-0.80
2018-02-06T01:08:38.858Z,-0.80
2018-02-06T01:11:05.329Z,-0.80
2018-02-06T01:13:31.946Z,-0.80
2018-02-06T01:15:58.363Z,-0.80
2018-02-06T01:18:24.564Z,-0.90
2018-02-06T01:20:51.674Z,-0.80
2018-02-06T01:23:18.130Z,-0.90
2018-02-06T01:25:44.380Z,-0.80
2018-02-06T01:28:10.648Z,-0.80
2018-02-06T01:30:37.046Z,-0.80
2018-02-06T01:33:03.340Z,-0.80
2018-02-06T01:35:29.761Z,-0.70
2018-02-06T01:37:56.259Z,-0.70
2018-02-06T01:40:22.496Z,-0.80
2018-02-06T01:42:48.873Z,-0.70
2018-02-06T01:45:15.149Z,-0.80
2018-02-06T01:47:41.584Z,-0.70
2018-02-06T01:50:07.894Z,-0.70
2018-02-06T01:52:34.188Z,-0.70
2018-02-06T01:55:02.348Z,-0.70
2018-02-06T01:57:28.746Z,-0.60
2018-02-06T01:59:55.126Z,-0.70
2018-02-06T02:02:21.613Z,-0.70
2018-02-06T02:04:48.047Z,-0.70
2018-02-06T02:07:14.405Z,-0.60
2018-02-06T02:09:40.716Z,-0.60
2018-02-06T02:12:07.304Z,-0.70
2018-02-06T02:14:33.605Z,-0.70
2018-02-06T02:17:00.169Z,-0.70
2018-02-06T02:19:26.602Z,-0.70
2018-02-06T02:21:53.066Z,-0.70
2018-02-06T02:24:20.472Z,-0.70
2018-02-06T02:26:46.960Z,-0.70
2018-02-06T02:29:13.270Z,-0.70
2018-02-06T02:31:41.256Z,-0.70
2018-02-06T02:34:07.658Z,-0.70
2018-02-06T02:36:34.087Z,-0.70
2018-02-06T02:39:00.436Z,-0.80
2018-02-06T02:41:26.816Z,-0.80
2018-02-06T04:40:10.718Z,-0.60
2018-02-06T04:42:37.182Z,-0.50
2018-02-06T04:45:03.574Z,-0.50
2018-02-06T04:47:29.832Z,-0.50
2018-02-06T04:49:57.092Z,-0.50
2018-02-06T04:52:23.497Z,-0.50
2018-02-06T04:54:50.155Z,-0.50
2018-02-06T04:57:16.803Z,-0.60
2018-02-06T04:59:43.252Z,-0.60
2018-02-06T05:02:11.558Z,-0.50
2018-02-06T05:04:38.196Z,-0.50
2018-02-06T05:07:04.618Z,-0.50
2018-02-06T05:09:31.990Z,-0.50
2018-02-06T05:11:58.486Z,-0.50
2018-02-06T05:14:25.261Z,-0.70
2018-02-06T05:16:51.940Z,-0.60
2018-02-06T05:19:19.098Z,-0.60
2018-02-06T05:21:45.517Z,-0.50
2018-02-06T05:24:14.269Z,-0.50
2018-02-06T05:26:41.728Z,-0.50
2018-02-06T05:29:08.995Z,-0.40
2018-02-06T05:31:35.468Z,-0.40
2018-02-06T05:34:01.701Z,-0.40
2018-02-06T05:36:28.076Z,-0.40
2018-02-06T05:39:11.402Z,-0.30
2018-02-06T05:41:38.822Z,-0.40
2018-02-06T05:44:05.400Z,-0.50
2018-02-06T05:46:32.395Z,-0.40
2018-02-06T05:52:02.141Z,-0.50
2018-02-06T05:54:29.080Z,-0.50
2018-02-06T05:56:55.640Z,-0.50
2018-02-06T05:59:24.087Z,-0.40
2018-02-06T06:01:50.513Z,-0.40
2018-02-06T06:04:24.030Z,-0.40
2018-02-06T06:06:50.552Z,-0.40
2018-02-06T06:09:16.885Z,-0.50
2018-02-06T06:11:43.213Z,-0.40
2018-02-06T06:14:10.543Z,-0.40
2018-02-06T06:16:36.808Z,-0.40
2018-02-06T06:19:03.043Z,-0.40
2018-02-06T06:21:29.442Z,-0.50
2018-02-06T06:23:55.708Z,-0.40
2018-02-06T06:26:22.155Z,-0.40
2018-02-06T06:31:40.862Z,-0.40
2018-02-06T06:34:20.815Z,-0.40
2018-02-06T06:36:47.824Z,-0.40
2018-02-06T06:39:14.029Z,-0.40
2018-02-06T06:41:40.311Z,-0.40
2018-02-06T06:44:19.477Z,-0.40
2018-02-06T06:46:46.749Z,-0.30
2018-02-06T06:49:13.873Z,0.30
2018-02-06T06:51:40.101Z,0.30
2018-02-06T06:54:06.570Z,0.40
2018-02-06T06:56:32.813Z,0.50
2018-02-06T06:58:59.012Z,0.60
2018-02-06T07:01:25.393Z,0.60
2018-02-06T07:03:51.637Z,0.40
2018-02-06T07:06:18.709Z,0.30
2018-02-06T07:08:44.964Z,0.20
2018-02-06T07:11:11.960Z,-0.10
2018-02-06T07:13:38.305Z,-0.10
2018-02-06T07:16:04.766Z,-0.10
2018-02-06T07:18:32.239Z,-0.10
2018-02-06T07:21:17.005Z,-0.10
2018-02-06T07:23:46.749Z,-0.10
2018-02-06T07:26:13.015Z,-0.10
2018-02-06T07:28:39.266Z,-0.10
2018-02-06T07:31:05.702Z,-0.10
2018-02-06T07:33:31.925Z,0.00
2018-02-06T07:35:58.172Z,0.00
2018-02-06T07:38:24.418Z,0.00
2018-02-06T07:40:50.908Z,0.00
2018-02-06T07:43:17.903Z,0.00
2018-02-06T07:45:44.341Z,0.00
2018-02-06T07:48:11.339Z,0.00
2018-02-06T07:50:37.572Z,0.00
2018-02-06T07:53:03.782Z,0.00
2018-02-06T07:55:30.130Z,0.00
2018-02-06T07:57:56.356Z,0.00
2018-02-06T08:00:22.593Z,0.00
2018-02-06T08:02:48.863Z,0.10
2018-02-06T08:05:15.105Z,0.10
2018-02-06T08:07:41.293Z,0.10
2018-02-06T08:10:07.556Z,0.10
2018-02-06T08:12:36.677Z,0.20
2018-02-06T08:15:03.153Z,0.10
2018-02-06T08:17:29.361Z,0.20
2018-02-06T08:19:55.772Z,0.30
2018-02-06T08:22:21.998Z,0.30
2018-02-06T08:24:48.438Z,0.40
2018-02-06T08:27:14.737Z,0.40
2018-02-06T08:29:41.032Z,0.40
2018-02-06T08:32:07.536Z,0.50
2018-02-06T08:34:34.211Z,0.50
2018-02-06T08:37:00.497Z,0.50
2018-02-06T08:39:27.621Z,0.40
2018-02-06T08:41:53.888Z,0.50
2018-02-06T08:44:21.069Z,0.60
2018-02-06T08:46:47.414Z,0.60
2018-02-06T08:49:14.548Z,0.60
2018-02-06T08:51:40.792Z,0.60
2018-02-06T08:54:06.984Z,0.60
2018-02-06T08:56:33.491Z,0.50
2018-02-06T08:59:00.445Z,0.60
2018-02-06T09:01:26.701Z,0.60
2018-02-06T09:03:53.581Z,0.70
2018-02-06T09:06:19.874Z,0.80
2018-02-06T09:08:46.615Z,0.90
2018-02-06T09:11:12.998Z,0.90
2018-02-06T09:13:39.567Z,1.00
2018-02-06T09:16:05.864Z,1.00
2018-02-06T09:18:33.646Z,1.00
2018-02-06T09:20:59.907Z,1.10
2018-02-06T09:23:27.615Z,1.20
2018-02-06T09:25:54.401Z,1.20
2018-02-06T09:28:20.803Z,1.20
2018-02-06T09:30:47.046Z,1.30
2018-02-06T09:33:13.583Z,1.30
2018-02-06T09:35:40.669Z,1.50
2018-02-06T09:38:29.670Z,1.40
2018-02-06T09:40:57.466Z,1.50
2018-02-06T09:43:23.922Z,1.60
2018-02-06T09:45:50.183Z,1.60
2018-02-06T09:48:16.749Z,1.70
2018-02-06T09:50:46.995Z,1.70
2018-02-06T09:56:18.759Z,1.70
2018-02-06T09:58:45.086Z,1.70
2018-02-06T10:01:11.732Z,1.70
2018-02-06T10:03:37.999Z,1.70
2018-02-06T10:06:04.305Z,1.80
2018-02-06T10:08:30.560Z,1.80
2018-02-06T10:10:57.126Z,1.90
2018-02-06T10:13:23.729Z,2.00
2018-02-06T10:15:52.849Z,2.00
2018-02-06T10:18:39.239Z,2.00
2018-02-06T10:21:06.314Z,2.00
2018-02-06T10:26:40.362Z,2.20
2018-02-06T10:29:06.875Z,2.20
2018-02-06T10:31:35.845Z,2.30
2018-02-06T10:36:36.504Z,2.40
2018-02-06T10:39:03.466Z,2.60
2018-02-06T10:41:29.932Z,2.70
2018-02-06T10:43:57.088Z,2.80
2018-02-06T10:46:23.599Z,2.90
2018-02-06T10:48:50.140Z,3.10
2018-02-06T10:51:18.101Z,3.00
2018-02-06T10:53:44.333Z,3.10
2018-02-06T10:56:10.625Z,3.10
2018-02-06T10:58:36.875Z,3.20
2018-02-06T11:01:04.053Z,3.10
2018-02-06T11:03:30.693Z,3.20
2018-02-06T11:05:57.079Z,3.10
2018-02-06T11:08:24.206Z,2.80
2018-02-06T11:10:50.396Z,2.90
2018-02-06T11:13:17.916Z,3.00
2018-02-06T11:15:44.218Z,3.00
2018-02-06T11:18:11.235Z,3.10
2018-02-06T11:20:37.626Z,3.20
2018-02-06T11:23:04.061Z,3.10
2018-02-06T11:25:31.185Z,3.10
2018-02-06T11:27:57.510Z,3.00
2018-02-06T11:30:23.717Z,2.90
2018-02-06T11:32:51.715Z,3.10
2018-02-06T11:35:18.632Z,3.10
2018-02-06T11:37:45.073Z,3.10
2018-02-06T11:40:12.744Z,3.20
2018-02-06T11:42:38.953Z,3.20
2018-02-06T11:45:09.181Z,3.20
2018-02-06T11:47:42.733Z,3.30
2018-02-06T11:50:09.644Z,3.40
2018-02-06T11:52:35.925Z,3.30
2018-02-06T11:55:02.242Z,3.30
2018-02-06T11:57:28.709Z,3.30
2018-02-06T11:59:55.196Z,3.20
2018-02-06T12:02:22.384Z,3.20
2018-02-06T12:04:48.699Z,3.20
2018-02-06T12:07:15.061Z,3.30
2018-02-06T12:09:41.252Z,3.30
2018-02-06T12:12:08.608Z,3.30
2018-02-06T12:14:34.858Z,3.40
2018-02-06T12:17:01.400Z,3.40
2018-02-06T12:19:27.609Z,3.50
2018-02-06T12:21:54.232Z,3.50
2018-02-06T12:24:20.520Z,3.50
2018-02-06T12:26:47.067Z,3.50
2018-02-06T12:29:13.348Z,3.50
2018-02-06T12:31:40.064Z,3.60
2018-02-06T12:34:06.425Z,3.60
2018-02-06T12:36:32.667Z,3.70
2018-02-06T12:38:59.484Z,3.70
2018-02-06T12:41:25.745Z,3.70
2018-02-06T12:43:52.142Z,3.70
2018-02-06T12:46:18.345Z,3.80
2018-02-06T12:48:45.909Z,3.80
2018-02-06T12:51:12.330Z,3.90
2018-02-06T12:53:38.622Z,3.90
2018-02-06T12:56:04.872Z,3.80
2018-02-06T12:58:32.250Z,3.90
2018-02-06T13:00:59.603Z,3.70
2018-02-06T13:03:26.546Z,3.70
2018-02-06T13:05:53.202Z,3.70
2018-02-06T13:08:19.484Z,3.50
2018-02-06T13:10:45.727Z,3.40
2018-02-06T13:13:12.028Z,3.40
2018-02-06T13:15:38.252Z,3.30
2018-02-06T13:18:04.516Z,3.30
2018-02-06T13:20:30.842Z,3.20
2018-02-06T13:22:57.037Z,3.10
2018-02-06T13:25:24.145Z,3.20
2018-02-06T13:27:50.411Z,3.10
2018-02-06T13:30:17.373Z,3.00
2018-02-06T13:32:43.768Z,3.00
2018-02-06T13:35:10.164Z,3.10
2018-02-06T13:37:36.376Z,3.10
2018-02-06T13:40:03.746Z,3.20
2018-02-06T13:42:31.663Z,3.20
2018-02-06T13:44:59.868Z,3.20
2018-02-06T13:47:26.139Z,3.10
2018-02-06T13:49:52.539Z,3.10
2018-02-06T13:52:18.765Z,3.20
2018-02-06T13:54:44.956Z,3.10
2018-02-06T13:57:11.156Z,3.10
2018-02-06T13:59:39.453Z,2.90
2018-02-06T14:02:05.745Z,2.90
2018-02-06T14:04:31.959Z,3.00
2018-02-06T14:06:58.208Z,3.00
2018-02-06T14:09:24.937Z,3.00
2018-02-06T14:11:51.253Z,3.00
2018-02-06T14:14:17.460Z,2.90
2018-02-06T14:16:43.745Z,2.90
2018-02-06T14:19:11.394Z,2.80
2018-02-06T14:21:37.721Z,2.80
2018-02-06T14:24:06.538Z,2.80
2018-02-06T14:26:32.858Z,2.80
2018-02-06T14:28:59.101Z,2.80
2018-02-06T14:31:25.602Z,2.80
2018-02-06T14:33:51.801Z,2.90
2018-02-06T14:36:18.168Z,2.90
2018-02-06T14:38:44.597Z,2.90
2018-02-06T14:41:10.824Z,2.90
2018-02-06T14:43:37.042Z,2.80
2018-02-06T14:46:03.650Z,2.80
2018-02-06T14:48:31.123Z,2.80
2018-02-06T14:50:57.632Z,2.80
2018-02-06T14:53:23.984Z,2.80
2018-02-06T14:55:54.262Z,2.80
2018-02-06T14:58:20.729Z,2.70
2018-02-06T15:01:07.204Z,2.70
2018-02-06T15:03:36.060Z,2.70
2018-02-06T15:06:02.316Z,2.70
2018-02-06T15:08:28.825Z,2.70
2018-02-06T15:10:58.365Z,2.70
2018-02-06T15:13:24.684Z,2.70
2018-02-06T15:15:50.924Z,2.70
2018-02-06T15:18:17.121Z,2.60
2018-02-06T15:20:44.420Z,2.70
2018-02-06T15:23:11.586Z,2.70
2018-02-06T15:25:37.819Z,2.80
2018-02-06T15:28:04.876Z,2.80
2018-02-06T15:30:31.883Z,2.80
2018-02-06T15:32:58.754Z,2.80
2018-02-06T15:35:26.002Z,2.80
2018-02-06T15:37:52.206Z,2.90
2018-02-06T15:40:18.596Z,2.90
2018-02-06T15:42:45.869Z,2.90
2018-02-06T15:45:12.153Z,2.90
2018-02-06T15:47:39.148Z,2.90
2018-02-06T15:50:05.451Z,2.90
2018-02-06T15:52:32.494Z,2.80
2018-02-06T15:54:59.730Z,2.80
2018-02-06T15:57:26.000Z,2.80
2018-02-06T15:59:52.539Z,2.80
2018-02-06T16:02:23.950Z,2.80
2018-02-06T16:04:50.336Z,2.70
2018-02-06T16:07:17.863Z,2.60
2018-02-06T16:09:44.057Z,2.60
2018-02-06T16:12:31.070Z,2.60
2018-02-06T16:14:58.902Z,2.60
2018-02-06T16:17:26.764Z,2.50
2018-02-06T16:19:54.382Z,2.50
2018-02-06T16:22:20.610Z,2.50
2018-02-06T16:24:48.169Z,2.40
2018-02-06T16:27:14.429Z,2.40
2018-02-06T16:29:41.439Z,2.50
2018-02-06T16:32:07.717Z,2.40
2018-02-06T16:34:33.952Z,2.40
2018-02-06T16:37:01.625Z,2.30
2018-02-06T16:39:29.298Z,2.30
2018-02-06T16:41:55.534Z,2.20
2018-02-06T16:44:21.796Z,2.30
2018-02-06T16:46:48.369Z,2.20
2018-02-06T16:49:14.576Z,2.20
2018-02-06T16:51:41.511Z,2.20
2018-02-06T16:54:07.715Z,2.20
2018-02-06T16:56:34.101Z,2.20
2018-02-06T16:59:00.510Z,2.20
2018-02-06T17:01:26.703Z,2.20
2018-02-06T17:03:53.752Z,2.10
2018-02-06T17:06:25.030Z,2.10
2018-02-06T17:08:51.558Z,2.10
2018-02-06T17:11:24.028Z,2.10
2018-02-06T17:13:50.338Z,2.10
2018-02-06T17:16:16.766Z,2.10
2018-02-06T17:18:43.058Z,2.00
2018-02-06T17:21:09.362Z,2.00
2018-02-06T17:23:35.842Z,2.00
2018-02-06T17:26:02.101Z,2.00
2018-02-06T17:28:28.301Z,2.00
2018-02-06T17:30:54.733Z,1.90
2018-02-06T17:33:21.173Z,2.00
2018-02-06T17:35:49.268Z,1.90
2018-02-06T17:38:22.415Z,1.90
2018-02-06T17:40:48.847Z,1.90
2018-02-06T17:43:24.737Z,1.90
2018-02-06T17:45:55.084Z,1.90
2018-02-06T17:48:21.484Z,1.90
2018-02-06T17:50:47.745Z,1.80
2018-02-06T17:53:13.903Z,1.80
2018-02-06T17:55:40.232Z,1.80
2018-02-06T17:58:06.407Z,1.70
2018-02-06T18:00:33.557Z,1.70
2018-02-06T18:02:59.878Z,1.70
2018-02-06T18:05:26.382Z,1.70
2018-02-06T18:07:52.704Z,1.70
2018-02-06T18:10:18.898Z,1.80
2018-02-06T18:12:45.188Z,1.80
2018-02-06T18:15:11.448Z,1.70
2018-02-06T18:17:37.673Z,1.70
2018-02-06T18:20:04.407Z,1.70
2018-02-06T18:22:30.692Z,1.70
2018-02-06T18:24:56.896Z,1.70
2018-02-06T18:27:23.309Z,1.70
2018-02-06T18:29:50.218Z,1.70
2018-02-06T18:32:16.548Z,1.70
2018-02-06T18:34:43.002Z,1.60
2018-02-06T18:37:09.634Z,1.70
2018-02-06T18:39:35.790Z,1.70
2018-02-06T18:42:02.723Z,1.60
2018-02-06T18:44:29.721Z,1.60
2018-02-06T18:46:55.996Z,1.60
2018-02-06T18:49:22.212Z,1.60
2018-02-06T18:51:48.386Z,1.60
2018-02-06T18:54:18.182Z,1.60
2018-02-06T18:56:46.232Z,1.60
2018-02-06T18:59:12.904Z,1.60
2018-02-06T19:01:39.145Z,1.60
2018-02-06T19:06:58.240Z,1.50
2018-02-06T19:09:24.876Z,1.50
2018-02-06T19:11:51.074Z,1.40
2018-02-06T19:14:18.148Z,1.30
2018-02-06T19:16:47.388Z,1.30
2018-02-06T19:19:14.409Z,1.20
2018-02-06T19:21:40.739Z,1.20
2018-02-06T19:24:15.077Z,1.20
2018-02-06T19:26:44.601Z,1.10
2018-02-06T19:29:11.970Z,1.10
2018-02-06T19:34:42.569Z,1.00
2018-02-06T19:37:10.939Z,0.90
2018-02-06T19:39:39.876Z,0.90
2018-02-06T19:42:06.918Z,0.90
2018-02-06T19:44:33.191Z,0.80
2018-02-06T19:46:59.423Z,0.70
2018-02-06T19:49:25.827Z,0.70
2018-02-06T19:51:52.055Z,0.60
2018-02-06T19:54:18.327Z,0.60
2018-02-06T19:56:46.199Z,0.50
2018-02-06T19:59:12.788Z,0.50
2018-02-06T20:01:39.096Z,0.50
2018-02-06T20:04:05.785Z,0.40
2018-02-06T20:06:32.113Z,0.40
2018-02-06T20:08:58.942Z,0.40
2018-02-06T20:11:26.216Z,0.30
2018-02-06T20:13:52.651Z,0.30
2018-02-06T20:16:23.123Z,0.30
2018-02-06T20:18:51.159Z,0.20
2018-02-06T20:21:17.446Z,0.20
2018-02-06T20:23:45.218Z,0.10
2018-02-06T20:26:11.533Z,0.20
2018-02-06T20:28:37.873Z,0.20
2018-02-06T20:31:05.129Z,0.20
2018-02-06T20:33:32.388Z,0.10
2018-02-06T20:41:19.405Z,0.10
2018-02-06T20:43:45.891Z,0.00
2018-02-06T20:46:31.954Z,0.00
2018-02-06T20:48:58.298Z,0.00
2018-02-06T20:51:24.686Z,0.00
2018-02-06T20:53:51.870Z,0.00
2018-02-06T20:56:18.410Z,0.00
2018-02-06T20:58:44.985Z,0.00
2018-02-06T21:01:11.264Z,0.00
2018-02-06T21:03:37.640Z,0.00
2018-02-06T21:06:04.053Z,0.00
2018-02-06T21:08:30.250Z,0.00
2018-02-06T21:10:58.054Z,0.00
2018-02-06T21:13:24.360Z,-0.10
2018-02-06T21:15:50.640Z,-0.10
2018-02-06T21:18:17.040Z,0.00
2018-02-06T21:26:49.358Z,0.00
2018-02-06T21:29:23.030Z,-0.10
2018-02-06T21:34:30.819Z,-0.10
2018-02-06T21:36:57.768Z,0.00
2018-02-06T21:42:27.706Z,-0.10
2018-02-06T21:44:53.942Z,-0.10
2018-02-06T21:47:21.777Z,-0.10
2018-02-06T21:49:53.639Z,-0.10
2018-02-06T21:58:41.757Z,0.00
2018-02-06T22:01:08.312Z,0.00
2018-02-06T22:03:34.855Z,-0.10
2018-02-06T22:06:16.496Z,0.00
2018-02-06T22:08:42.780Z,-0.10
2018-02-06T22:11:09.455Z,-0.10
2018-02-06T22:13:37.149Z,-0.10
2018-02-06T22:16:03.681Z,-0.10
2018-02-06T22:18:48.490Z,-0.10
2018-02-06T22:21:15.193Z,-0.10
2018-02-06T22:26:29.432Z,-0.10
2018-02-06T22:28:56.518Z,-0.20
2018-02-06T22:31:23.088Z,-0.20
2018-02-06T22:33:49.342Z,-0.20
2018-02-06T22:36:15.842Z,-0.10
2018-02-06T22:38:42.128Z,-0.20
2018-02-06T22:41:08.398Z,-0.20
2018-02-06T22:43:35.160Z,-0.20
2018-02-06T22:46:02.437Z,-0.20
2018-02-06T22:48:28.771Z,-0.20
2018-02-06T22:50:56.002Z,-0.30
2018-02-06T22:53:22.378Z,-0.30
2018-02-06T22:55:52.213Z,-0.40
2018-02-06T22:58:18.494Z,-0.40
2018-02-06T23:00:44.757Z,-0.40
2018-02-06T23:03:11.181Z,-0.30
2018-02-06T23:08:40.174Z,-0.40
2018-02-06T23:11:07.194Z,-0.40
2018-02-06T23:13:33.453Z,-0.40
2018-02-06T23:16:01.102Z,-0.50
2018-02-06T23:18:27.342Z,-0.50
2018-02-06T23:20:53.972Z,-0.50
2018-02-06T23:26:02.231Z,-0.50
2018-02-06T23:28:28.486Z,-0.50
2018-02-06T23:30:54.818Z,-0.50
2018-02-06T23:33:21.202Z,-0.50
2018-02-06T23:35:47.560Z,-0.60
2018-02-06T23:38:14.689Z,-0.60
2018-02-06T23:40:41.675Z,-0.50
2018-02-06T23:43:08.124Z,-0.50
2018-02-06T23:45:34.475Z,-0.50
2018-02-06T23:48:00.776Z,-0.50
2018-02-06T23:50:27.134Z,-0.60
2018-02-06T23:52:53.398Z,-0.60
2018-02-06T23:55:19.604Z,-0.60
2018-02-06T23:57:46.033Z,-0.60
